Time;durP1;ratioP1;P1;durP2;ratioP2;P2;SDS_P1;SDS_P2;PMS_P1;PMS_P2;Temp;Humidity;BMP_temperature;BMP_pressure;BME280_temperature;BME280_humidity;BME280_pressure;Samples;Min_cycle;Max_cycle;Signal;HPM_P1;HPM_P2
2022/12/14 00:01:07;;;;;;;63.43;50.57;;;-3.50;99.90;;;;;;5020188;28;20407;-74
2022/12/14 00:03:36;;;;;;;58.17;48.17;;;-3.60;99.90;;;;;;5033367;28;20045;-74
2022/12/14 00:06:14;;;;;;;61.77;49.67;;;-3.60;99.90;;;;;;5036436;28;20500;-74
2022/12/14 00:08:40;;;;;;;62.17;48.00;;;-3.60;99.90;;;;;;5038110;28;20323;-74
2022/12/14 00:11:10;;;;;;;56.30;45.87;;;-3.60;99.90;;;;;;5020648;28;20044;-74
2022/12/14 00:13:37;;;;;;;57.20;46.90;;;-3.60;99.90;;;;;;5053001;28;20048;-74
2022/12/14 00:16:09;;;;;;;60.57;49.17;;;-3.60;99.90;;;;;;5021855;28;20047;-74
2022/12/14 00:18:34;;;;;;;62.17;50.07;;;-3.60;99.90;;;;;;5017480;28;20036;-74
2022/12/14 00:21:05;;;;;;;62.17;49.83;;;-3.50;99.90;;;;;;5023964;28;20048;-75
2022/12/14 00:23:32;;;;;;;58.87;47.87;;;-3.60;99.90;;;;;;5019113;28;20045;-74
2022/12/14 00:25:58;;;;;;;63.13;49.50;;;-3.60;99.90;;;;;;5019968;28;20511;-74
2022/12/14 00:28:24;;;;;;;62.57;49.70;;;-3.70;99.90;;;;;;5000791;28;20052;-74
2022/12/14 00:30:56;;;;;;;60.27;48.90;;;-3.80;99.90;;;;;;5020079;28;20570;-74
2022/12/14 00:33:22;;;;;;;63.30;49.23;;;-3.80;99.90;;;;;;5020361;28;20041;-74
2022/12/14 00:35:48;;;;;;;59.43;48.20;;;-3.80;99.90;;;;;;4990787;28;20106;-74
2022/12/14 00:38:17;;;;;;;61.10;48.43;;;-3.80;99.90;;;;;;5003177;28;20368;-74
2022/12/14 00:40:45;;;;;;;56.80;46.47;;;-3.80;99.90;;;;;;5022388;28;20052;-73
2022/12/14 00:43:11;;;;;;;66.70;51.10;;;-3.70;99.90;;;;;;5019721;28;20139;-74
2022/12/14 00:45:37;;;;;;;58.33;48.53;;;-3.80;99.90;;;;;;5033524;28;20602;-73
2022/12/14 00:48:05;;;;;;;58.33;46.80;;;-3.80;99.90;;;;;;5022374;28;20037;-73
2022/12/14 00:50:34;;;;;;;58.63;47.23;;;-3.80;99.90;;;;;;5007614;28;20070;-73
2022/12/14 00:53:00;;;;;;;54.97;44.53;;;-3.80;99.90;;;;;;5004553;28;20037;-73
2022/12/14 00:55:25;;;;;;;55.43;45.13;;;-3.80;99.90;;;;;;5021798;28;20045;-73
2022/12/14 00:57:52;;;;;;;59.17;46.27;;;-3.80;99.90;;;;;;5028473;28;20527;-74
2022/12/14 01:00:18;;;;;;;61.40;49.07;;;-3.80;99.90;;;;;;5019875;28;20135;-74
2022/12/14 01:02:44;;;;;;;65.27;51.17;;;-3.80;99.90;;;;;;5039243;28;20673;-74
2022/12/14 01:05:09;;;;;;;61.73;50.53;;;-3.80;99.90;;;;;;4997597;28;20190;-74
2022/12/14 01:07:36;;;;;;;62.20;48.97;;;-3.80;99.90;;;;;;5035856;28;20505;-74
2022/12/14 01:10:02;;;;;;;65.63;51.90;;;-3.90;99.90;;;;;;5030208;28;20084;-73
2022/12/14 01:12:28;;;;;;;63.30;49.63;;;-3.90;99.90;;;;;;5024832;28;20131;-74
2022/12/14 01:14:54;;;;;;;60.77;49.87;;;-3.90;99.90;;;;;;5022446;28;20132;-74
2022/12/14 01:17:20;;;;;;;62.13;49.23;;;-4.00;99.90;;;;;;5030106;28;20133;-73
2022/12/14 01:19:46;;;;;;;59.77;49.23;;;-4.00;99.90;;;;;;5037451;28;20132;-73
2022/12/14 01:22:12;;;;;;;60.47;49.03;;;-3.90;99.90;;;;;;5019273;28;20051;-81
2022/12/14 01:24:38;;;;;;;58.80;48.43;;;-4.00;99.90;;;;;;5038474;28;20049;-82
2022/12/14 01:27:04;;;;;;;59.77;47.70;;;-4.00;99.90;;;;;;5036873;28;20295;-81
2022/12/14 01:29:30;;;;;;;62.13;49.30;;;-4.00;99.90;;;;;;5023758;28;20044;-81
2022/12/14 01:31:56;;;;;;;68.10;52.27;;;-4.00;99.90;;;;;;5046478;28;20556;-81
2022/12/14 01:34:21;;;;;;;64.33;50.57;;;-4.10;99.90;;;;;;5027969;28;20138;-81
2022/12/14 01:36:47;;;;;;;63.30;49.60;;;-4.10;99.90;;;;;;5037190;28;20498;-82
2022/12/14 01:39:14;;;;;;;60.73;48.80;;;-4.10;99.90;;;;;;5005363;28;20122;-81
2022/12/14 01:41:43;;;;;;;59.70;48.17;;;-4.10;99.90;;;;;;5025426;28;20048;-81
2022/12/14 01:44:09;;;;;;;61.50;49.13;;;-4.20;99.90;;;;;;5022462;28;20040;-74
2022/12/14 01:46:47;;;;;;;60.53;49.60;;;-4.20;99.90;;;;;;5027683;28;20403;-73
2022/12/14 01:49:31;;;;;;;61.53;48.00;;;-4.20;99.90;;;;;;5035302;28;20041;-81
2022/12/14 01:52:08;;;;;;;64.53;49.83;;;-4.20;99.90;;;;;;5039111;28;20380;-81
2022/12/14 01:54:39;;;;;;;63.90;49.60;;;-4.30;99.90;;;;;;5029647;28;20056;-73
2022/12/14 01:57:05;;;;;;;56.27;45.17;;;-4.40;99.90;;;;;;5016406;28;20124;-73
2022/12/14 01:59:39;;;;;;;63.40;48.40;;;-4.50;99.90;;;;;;5039343;28;20487;-73
2022/12/14 02:02:08;;;;;;;54.93;45.10;;;-4.50;99.90;;;;;;5029554;28;20045;-73
2022/12/14 02:04:44;;;;;;;57.20;45.83;;;-4.60;99.90;;;;;;5019149;28;20131;-81
2022/12/14 02:07:13;;;;;;;59.60;45.50;;;-4.50;99.90;;;;;;5020560;28;20036;-81
2022/12/14 02:09:41;;;;;;;58.93;45.10;;;-4.40;99.90;;;;;;5020063;28;20053;-81
2022/12/14 02:12:24;;;;;;;58.77;45.70;;;-4.50;99.90;;;;;;5037604;28;20044;-81
2022/12/14 02:14:52;;;;;;;55.07;45.17;;;-4.50;99.90;;;;;;5038708;28;20507;-81
2022/12/14 02:17:19;;;;;;;59.10;47.00;;;-4.60;99.90;;;;;;5012207;28;20405;-73
2022/12/14 02:19:48;;;;;;;58.20;45.80;;;-4.60;99.90;;;;;;5002869;28;20044;-73
2022/12/14 02:22:44;;;;;;;60.37;47.43;;;-4.70;99.90;;;;;;5033582;28;20499;-82
2022/12/14 02:25:22;;;;;;;63.57;48.37;;;-4.80;99.90;;;;;;5018138;28;20072;-82
2022/12/14 02:28:16;;;;;;;66.50;50.50;;;-4.80;99.90;;;;;;5035916;28;20139;-82
2022/12/14 02:30:47;;;;;;;63.50;49.80;;;-4.90;99.90;;;;;;5018360;28;20253;-82
2022/12/14 02:33:35;;;;;;;66.10;52.30;;;-4.90;99.90;;;;;;5034271;28;20044;-81
2022/12/14 02:36:29;;;;;;;63.77;49.70;;;-4.90;99.90;;;;;;5029896;28;20048;-82
2022/12/14 02:39:21;;;;;;;64.23;49.37;;;-4.90;99.90;;;;;;5032879;28;20048;-82
2022/12/14 02:42:14;;;;;;;63.40;49.00;;;-4.90;99.90;;;;;;5031561;28;20041;-82
2022/12/14 02:44:51;;;;;;;56.97;44.87;;;-4.90;99.90;;;;;;4981676;28;20578;-82
2022/12/14 02:47:42;;;;;;;57.40;45.60;;;-4.90;99.90;;;;;;5032732;28;20574;-82
2022/12/14 02:50:37;;;;;;;54.33;42.50;;;-4.90;99.90;;;;;;5004142;28;20155;-81
2022/12/14 02:53:16;;;;;;;52.97;41.93;;;-4.90;99.90;;;;;;4973287;28;20056;-82
2022/12/14 02:55:49;;;;;;;53.75;42.97;;;-4.90;99.90;;;;;;5015545;28;20511;-82
2022/12/14 02:58:19;;;;;;;50.70;40.27;;;-5.00;99.90;;;;;;5023768;28;20143;-82
2022/12/14 03:00:46;;;;;;;50.97;40.47;;;-5.00;99.90;;;;;;5027964;28;20134;-82
2022/12/14 03:03:12;;;;;;;52.83;40.67;;;-5.00;99.90;;;;;;5008012;28;20074;-82
2022/12/14 03:05:38;;;;;;;50.57;41.13;;;-5.10;99.90;;;;;;5025991;28;20036;-82
2022/12/14 03:08:15;;;;;;;47.37;39.47;;;-5.10;99.90;;;;;;5011173;28;20495;-82
2022/12/14 03:10:56;;;;;;;50.83;40.73;;;-5.10;99.90;;;;;;4994121;28;20689;-81
2022/12/14 03:13:32;;;;;;;50.57;38.93;;;-5.10;99.90;;;;;;5004798;28;20036;-81
2022/12/14 03:16:10;;;;;;;46.37;37.07;;;-5.10;99.90;;;;;;5044985;28;20052;-82
2022/12/14 03:19:03;;;;;;;48.93;37.70;;;-5.10;99.90;;;;;;5028130;28;20052;-82
2022/12/14 03:21:36;;;;;;;50.37;38.87;;;-5.20;99.90;;;;;;5011911;28;20526;-81
2022/12/14 03:24:10;;;;;;;47.07;37.87;;;-5.30;99.90;;;;;;5008581;28;20048;-82
2022/12/14 03:27:06;;;;;;;47.40;36.90;;;-5.30;99.90;;;;;;5010963;28;20523;-81
2022/12/14 03:29:40;;;;;;;45.33;37.37;;;-5.20;99.90;;;;;;5005739;28;20143;-81
2022/12/14 03:32:14;;;;;;;49.20;37.13;;;-5.30;99.90;;;;;;5025155;28;20051;-82
2022/12/14 03:34:48;;;;;;;44.73;35.27;;;-5.30;99.90;;;;;;5028291;28;20055;-82
2022/12/14 03:37:39;;;;;;;46.20;35.67;;;-5.20;99.90;;;;;;5028356;28;20131;-82
2022/12/14 03:40:11;;;;;;;44.07;34.67;;;-5.20;99.90;;;;;;5026695;28;20044;-82
2022/12/14 03:42:55;;;;;;;43.03;34.87;;;-5.20;99.90;;;;;;5029293;28;20056;-81
2022/12/14 03:45:33;;;;;;;44.70;34.77;;;-5.20;99.90;;;;;;5013397;28;20700;-81
2022/12/14 03:48:14;;;;;;;45.20;34.67;;;-5.20;99.90;;;;;;5011080;28;20127;-81
2022/12/14 03:51:13;;;;;;;45.03;35.23;;;-5.20;99.90;;;;;;5029490;28;20090;-81
2022/12/14 03:54:10;;;;;;;43.77;33.70;;;-5.20;99.90;;;;;;5013437;28;20044;-81
2022/12/14 03:57:10;;;;;;;44.20;35.10;;;-5.20;99.90;;;;;;5026835;28;20068;-81
2022/12/14 03:59:48;;;;;;;44.42;34.00;;;-5.20;99.90;;;;;;5031400;28;20040;-81
2022/12/14 04:02:24;;;;;;;43.57;33.77;;;-5.20;99.90;;;;;;5011377;28;20055;-82
2022/12/14 04:05:16;;;;;;;41.30;33.20;;;-5.20;99.90;;;;;;5027715;28;20087;-81
2022/12/14 04:08:02;;;;;;;44.40;34.40;;;-5.20;99.90;;;;;;5028910;28;20041;-81
2022/12/14 04:19:09;;;;;;;42.22;32.72;;;-5.30;99.90;;;;;;5023368;28;20048;-82
2022/12/14 04:21:41;;;;;;;40.87;31.13;;;-5.30;99.90;;;;;;5028059;28;20040;-81
2022/12/14 04:27:21;;;;;;;40.53;32.40;;;-5.40;99.90;;;;;;5027482;28;20131;-81
2022/12/14 04:29:55;;;;;;;40.30;32.90;;;-5.40;99.90;;;;;;5009898;28;20131;-73
2022/12/14 04:32:21;;;;;;;45.17;34.10;;;-5.50;99.90;;;;;;5027682;28;20097;-74
2022/12/14 04:35:02;;;;;;;45.60;35.13;;;-5.60;99.90;;;;;;5012141;28;21309;-73
2022/12/14 04:37:34;;;;;;;46.33;35.60;;;-5.70;99.90;;;;;;5010164;28;20067;-73
2022/12/14 04:40:32;;;;;;;48.87;35.00;;;-5.70;99.90;;;;;;5011086;28;20040;-73
2022/12/14 04:43:03;;;;;;;43.53;34.67;;;-5.80;99.90;;;;;;5016000;28;20061;-73
2022/12/14 04:45:42;;;;;;;46.63;34.27;;;-5.90;99.90;;;;;;5025902;28;20107;-74
2022/12/14 04:48:17;;;;;;;43.47;33.17;;;-5.90;99.90;;;;;;5027362;28;20052;-73
2022/12/14 04:50:48;;;;;;;43.47;33.97;;;-6.00;99.90;;;;;;5014514;28;20126;-74
2022/12/14 04:53:22;;;;;;;44.03;33.73;;;-6.00;99.90;;;;;;5032659;28;20573;-73
2022/12/14 04:55:55;;;;;;;41.60;28.63;;;-6.00;99.90;;;;;;5032970;28;20083;-73
2022/12/14 04:58:27;;;;;;;45.23;35.33;;;-6.00;99.90;;;;;;5014633;28;20056;-73
2022/12/14 05:01:02;;;;;;;40.53;32.87;;;-6.10;99.90;;;;;;5014130;28;20136;-73
2022/12/14 05:03:35;;;;;;;43.77;34.87;;;-6.20;99.90;;;;;;5034766;28;20049;-73
2022/12/14 05:06:23;;;;;;;45.47;34.90;;;-6.20;99.90;;;;;;5033419;28;20340;-73
2022/12/14 05:08:52;;;;;;;46.13;35.00;;;-6.30;99.90;;;;;;5033447;28;20041;-73
2022/12/14 05:11:59;;;;;;;47.20;36.83;;;-6.40;99.90;;;;;;5014042;28;20059;-73
2022/12/14 05:14:43;;;;;;;48.73;36.57;;;-6.40;99.90;;;;;;5035013;28;20165;-73
2022/12/14 05:17:09;;;;;;;47.17;36.20;;;-6.40;99.90;;;;;;5016229;28;20530;-73
2022/12/14 05:19:36;;;;;;;53.03;38.17;;;-6.50;99.90;;;;;;5018351;28;20052;-73
2022/12/14 05:22:07;;;;;;;47.77;36.90;;;-6.50;99.90;;;;;;5036593;28;20140;-73
2022/12/14 05:24:32;;;;;;;50.53;37.72;;;-6.50;99.90;;;;;;5017599;28;20049;-73
2022/12/14 05:26:58;;;;;;;49.73;36.37;;;-6.50;99.90;;;;;;5033582;28;20056;-73
2022/12/14 05:29:27;;;;;;;52.37;38.50;;;-6.50;99.90;;;;;;5016806;28;20044;-82
2022/12/14 05:31:56;;;;;;;47.60;37.23;;;-6.60;99.90;;;;;;5017439;28;20494;-82
2022/12/14 05:34:22;;;;;;;49.80;38.43;;;-6.50;99.90;;;;;;5001297;28;20305;-80
2022/12/14 05:36:48;;;;;;;49.07;37.17;;;-6.50;99.90;;;;;;5016732;28;20071;-80
2022/12/14 05:39:14;;;;;;;49.40;37.27;;;-6.40;99.90;;;;;;5017565;28;20079;-80
2022/12/14 05:41:41;;;;;;;51.07;38.27;;;-6.40;99.90;;;;;;5016337;28;20046;-80
2022/12/14 05:44:07;;;;;;;49.43;37.53;;;-6.30;99.90;;;;;;5016497;28;20423;-80
2022/12/14 05:46:33;;;;;;;39.47;19.37;;;-6.30;99.90;;;;;;5030917;28;20052;-73
2022/12/14 05:48:59;;;;;;;48.50;37.13;;;-6.30;99.90;;;;;;5030277;28;20072;-73
2022/12/14 05:51:24;;;;;;;53.63;40.33;;;-6.30;99.90;;;;;;5009213;28;20059;-73
2022/12/14 05:53:54;;;;;;;53.83;40.80;;;-6.20;99.90;;;;;;5012218;28;20506;-73
2022/12/14 05:56:20;;;;;;;47.70;38.50;;;-6.20;99.90;;;;;;5027544;28;20746;-74
2022/12/14 05:58:49;;;;;;;47.50;38.17;;;-6.20;99.90;;;;;;5010880;28;20311;-74
2022/12/14 06:01:16;;;;;;;48.63;36.97;;;-6.20;99.90;;;;;;5007696;28;20754;-74
2022/12/14 06:03:42;;;;;;;50.53;38.20;;;-6.20;99.90;;;;;;5009983;28;21092;-73
2022/12/14 06:06:10;;;;;;;47.13;36.30;;;-6.20;99.90;;;;;;5008479;28;20091;-74
2022/12/14 06:08:38;;;;;;;47.17;36.17;;;-6.20;99.90;;;;;;5009273;28;20499;-74
2022/12/14 06:11:27;;;;;;;45.57;35.30;;;-6.20;99.90;;;;;;5013729;28;20079;-74
2022/12/14 06:13:53;;;;;;;48.50;37.13;;;-6.20;99.90;;;;;;5024562;28;20051;-73
2022/12/14 06:16:23;;;;;;;46.80;35.63;;;-6.20;99.90;;;;;;5012385;28;20051;-73
2022/12/14 06:18:52;;;;;;;50.07;37.73;;;-6.20;99.90;;;;;;5014565;28;20284;-73
2022/12/14 06:21:20;;;;;;;51.43;37.00;;;-6.30;99.90;;;;;;5024886;28;20044;-73
2022/12/14 06:23:48;;;;;;;48.35;37.65;;;-6.30;99.90;;;;;;5029340;28;20052;-80
2022/12/14 06:26:14;;;;;;;46.13;35.27;;;-6.30;99.90;;;;;;5011424;28;20228;-80
2022/12/14 06:28:40;;;;;;;47.13;35.93;;;-6.30;99.90;;;;;;5014830;28;20048;-80
2022/12/14 06:31:12;;;;;;;47.77;35.43;;;-6.40;99.90;;;;;;4998599;28;20047;-80
2022/12/14 06:33:38;;;;;;;48.07;35.10;;;-6.50;99.90;;;;;;5029127;28;20641;-80
2022/12/14 06:36:04;;;;;;;47.00;36.30;;;-6.50;99.90;;;;;;5010518;28;20048;-80
2022/12/14 06:38:37;;;;;;;47.43;36.43;;;-6.60;99.90;;;;;;5028170;28;20415;-80
2022/12/14 06:41:07;;;;;;;48.73;37.30;;;-6.60;99.90;;;;;;5029096;28;20055;-81
2022/12/14 06:43:33;;;;;;;53.42;39.03;;;-6.60;99.90;;;;;;5030993;28;20157;-81
2022/12/14 06:45:58;;;;;;;45.70;34.70;;;-6.60;99.90;;;;;;5009004;28;20052;-80
2022/12/14 06:48:24;;;;;;;46.73;36.20;;;-6.60;99.90;;;;;;5012211;28;20186;-81
2022/12/14 06:50:50;;;;;;;47.13;35.73;;;-6.50;99.90;;;;;;5010636;28;20045;-80
2022/12/14 06:53:16;;;;;;;49.80;37.33;;;-6.60;99.90;;;;;;4997860;28;20040;-80
2022/12/14 06:55:42;;;;;;;51.20;38.27;;;-6.50;99.90;;;;;;4991486;28;20049;-80
2022/12/14 06:58:12;;;;;;;49.03;34.90;;;-6.50;99.90;;;;;;5033784;28;20052;-80
2022/12/14 07:00:38;;;;;;;48.33;37.13;;;-6.50;99.90;;;;;;5023484;28;20587;-80
2022/12/14 07:03:04;;;;;;;48.73;37.00;;;-6.40;99.90;;;;;;5024145;28;20075;-80
2022/12/14 07:05:30;;;;;;;50.63;37.07;;;-6.40;99.90;;;;;;5008384;28;20044;-80
2022/12/14 07:07:56;;;;;;;47.27;34.77;;;-6.40;99.90;;;;;;5010839;28;20044;-80
2022/12/14 07:10:24;;;;;;;48.63;36.10;;;-6.30;99.90;;;;;;5019556;28;20044;-80
2022/12/14 07:12:50;;;;;;;49.40;36.17;;;-6.40;99.90;;;;;;5012202;28;20048;-80
2022/12/14 07:15:16;;;;;;;49.90;36.90;;;-6.50;99.90;;;;;;5025887;28;20040;-80
2022/12/14 07:17:42;;;;;;;47.50;35.83;;;-6.50;99.90;;;;;;5026277;28;20040;-80
2022/12/14 07:20:08;;;;;;;47.70;35.30;;;-6.50;99.90;;;;;;5008377;28;20067;-80
2022/12/14 07:22:35;;;;;;;47.17;28.73;;;-6.50;99.90;;;;;;5006439;28;20045;-81
2022/12/14 07:25:01;;;;;;;47.27;35.97;;;-6.60;99.90;;;;;;5038566;28;20060;-81
2022/12/14 07:27:27;;;;;;;46.17;35.07;;;-6.60;99.90;;;;;;5035822;28;20055;-80
2022/12/14 07:29:56;;;;;;;50.87;36.70;;;-6.60;99.90;;;;;;5038545;28;20052;-81
2022/12/14 07:32:22;;;;;;;49.40;38.10;;;-6.60;99.90;;;;;;5011504;28;20170;-74
2022/12/14 07:34:47;;;;;;;52.57;38.83;;;-6.60;99.90;;;;;;5025934;28;20057;-74
2022/12/14 07:37:16;;;;;;;49.63;37.27;;;-6.60;99.90;;;;;;5007001;28;20554;-74
2022/12/14 07:39:42;;;;;;;51.70;37.73;;;-6.50;99.90;;;;;;5018033;28;20178;-74
2022/12/14 07:42:08;;;;;;;50.77;37.23;;;-6.60;99.90;;;;;;5056499;28;20573;-73
2022/12/14 07:44:34;;;;;;;51.63;38.73;;;-6.60;99.90;;;;;;5024291;28;20453;-74
2022/12/14 07:47:00;;;;;;;48.40;35.67;;;-6.60;99.90;;;;;;4993908;28;20044;-74
2022/12/14 07:49:25;;;;;;;48.20;35.43;;;-6.70;99.90;;;;;;5025028;28;20049;-74
2022/12/14 07:51:51;;;;;;;48.03;36.00;;;-6.80;99.90;;;;;;5027256;28;20162;-74
2022/12/14 07:54:17;;;;;;;47.03;35.97;;;-6.90;99.90;;;;;;5008951;28;20055;-74
2022/12/14 07:56:43;;;;;;;50.27;38.13;;;-6.90;99.90;;;;;;5003501;28;20049;-74
2022/12/14 07:59:14;;;;;;;47.73;35.93;;;-6.90;99.90;;;;;;5027199;28;20063;-74
2022/12/14 08:01:41;;;;;;;52.03;38.53;;;-6.90;99.90;;;;;;5038667;28;20110;-74
2022/12/14 08:04:17;;;;;;;53.70;37.47;;;-6.80;99.90;;;;;;5021182;28;20503;-73
2022/12/14 08:06:43;;;;;;;49.00;36.60;;;-6.80;99.90;;;;;;5035838;28;20136;-80
2022/12/14 08:09:10;;;;;;;49.73;37.33;;;-6.90;99.90;;;;;;4997434;28;20052;-77
2022/12/14 08:11:36;;;;;;;50.27;37.43;;;-6.90;99.90;;;;;;5051876;28;20056;-75
2022/12/14 08:14:06;;;;;;;51.27;38.27;;;-6.90;99.90;;;;;;5021127;28;20111;-75
2022/12/14 08:16:32;;;;;;;51.70;38.57;;;-6.90;99.90;;;;;;5041290;28;20128;-75
2022/12/14 08:18:58;;;;;;;50.80;37.43;;;-6.80;99.90;;;;;;5021876;28;20567;-75
2022/12/14 08:21:25;;;;;;;50.17;38.90;;;-6.70;99.90;;;;;;5040908;28;20092;-75
2022/12/14 08:23:52;;;;;;;50.67;37.77;;;-6.60;99.90;;;;;;5020672;28;20079;-75
2022/12/14 08:26:18;;;;;;;48.97;34.80;;;-6.60;99.90;;;;;;5021784;28;20494;-75
2022/12/14 08:28:44;;;;;;;47.70;35.93;;;-6.50;99.90;;;;;;5043232;28;20143;-75
2022/12/14 08:31:13;;;;;;;47.43;35.83;;;-6.50;99.90;;;;;;5026660;28;20182;-75
2022/12/14 08:33:40;;;;;;;44.73;36.13;;;-6.50;99.90;;;;;;5020606;28;20075;-76
2022/12/14 08:36:12;;;;;;;45.83;34.87;;;-6.40;99.90;;;;;;5024920;28;20132;-75
2022/12/14 08:38:41;;;;;;;48.77;35.40;;;-6.30;99.90;;;;;;5025010;28;20072;-76
2022/12/14 08:41:10;;;;;;;41.83;21.43;;;-6.30;99.90;;;;;;5021245;28;20135;-75
2022/12/14 08:43:36;;;;;;;47.60;36.37;;;-6.20;99.90;;;;;;5023912;28;20048;-76
2022/12/14 08:46:02;;;;;;;47.87;35.97;;;-6.20;99.90;;;;;;5038413;28;20072;-75
2022/12/14 08:48:28;;;;;;;56.50;41.40;;;-6.00;99.90;;;;;;5012213;28;20054;-76
2022/12/14 08:50:59;;;;;;;57.53;39.67;;;-6.10;99.90;;;;;;5041196;28;20442;-75
2022/12/14 08:53:25;;;;;;;54.63;39.30;;;-6.10;99.90;;;;;;5028234;28;20049;-75
2022/12/14 08:55:50;;;;;;;49.10;37.20;;;-6.20;99.90;;;;;;4994624;28;20051;-75
2022/12/14 08:58:16;;;;;;;52.27;38.63;;;-6.30;99.90;;;;;;5026276;28;20048;-75
2022/12/14 09:00:42;;;;;;;55.57;41.53;;;-6.30;99.90;;;;;;5041301;28;20044;-75
2022/12/14 09:03:08;;;;;;;62.07;46.47;;;-6.30;99.90;;;;;;5022684;28;20056;-75
2022/12/14 09:05:34;;;;;;;55.47;41.77;;;-6.30;99.90;;;;;;5008761;28;20029;-76
2022/12/14 09:08:00;;;;;;;53.53;41.17;;;-6.30;99.90;;;;;;5006536;28;20135;-75
2022/12/14 09:10:26;;;;;;;52.30;40.93;;;-6.30;99.90;;;;;;5024525;28;20171;-74
2022/12/14 09:12:52;;;;;;;52.43;39.13;;;-6.30;99.90;;;;;;5026522;28;20494;-75
2022/12/14 09:15:17;;;;;;;50.47;40.47;;;-6.30;99.90;;;;;;5010682;28;20055;-75
2022/12/14 09:17:43;;;;;;;50.00;40.07;;;-6.20;99.90;;;;;;5024386;28;20336;-76
2022/12/14 09:20:12;;;;;;;50.57;39.87;;;-6.10;99.90;;;;;;5038153;28;20079;-75
2022/12/14 09:22:39;;;;;;;53.57;40.47;;;-6.10;99.90;;;;;;5025406;28;20116;-76
2022/12/14 09:25:05;;;;;;;71.60;52.03;;;-6.00;99.90;;;;;;5020709;28;20468;-75
2022/12/14 09:27:32;;;;;;;61.10;46.33;;;-5.90;99.90;;;;;;5027973;28;20479;-75
2022/12/14 09:29:58;;;;;;;60.53;45.50;;;-5.90;99.90;;;;;;5009293;28;20129;-75
2022/12/14 09:32:24;;;;;;;55.53;43.43;;;-5.90;99.90;;;;;;5039385;28;20095;-76
2022/12/14 09:34:51;;;;;;;56.50;42.87;;;-5.90;99.90;;;;;;5039870;28;20048;-76
2022/12/14 09:37:17;;;;;;;57.20;44.20;;;-5.80;99.90;;;;;;5024119;28;20032;-75
2022/12/14 09:39:43;;;;;;;54.37;42.07;;;-5.80;99.90;;;;;;5024170;28;20070;-75
2022/12/14 09:42:31;;;;;;;48.67;38.80;;;-5.70;99.90;;;;;;5014137;28;20059;-75
2022/12/14 09:45:25;;;;;;;49.60;38.47;;;-5.60;99.90;;;;;;5034436;28;20483;-75
2022/12/14 09:48:19;;;;;;;46.80;34.13;;;-5.50;99.90;;;;;;5033044;28;20131;-75
2022/12/14 09:50:50;;;;;;;44.40;33.40;;;-5.40;99.90;;;;;;5039286;28;20419;-75
2022/12/14 09:53:18;;;;;;;40.07;31.07;;;-5.20;99.90;;;;;;5046826;28;20044;-75
2022/12/14 09:55:47;;;;;;;42.03;33.00;;;-5.10;99.90;;;;;;5027372;28;20056;-75
2022/12/14 09:58:24;;;;;;;40.87;31.63;;;-5.00;99.90;;;;;;5026988;28;20368;-75
2022/12/14 10:01:45;;;;;;;43.17;32.27;;;-4.90;99.90;;;;;;5045106;28;20435;-75
2022/12/14 10:04:18;;;;;;;41.42;31.48;;;-4.90;99.90;;;;;;4987366;28;20054;-75
2022/12/14 10:06:59;;;;;;;43.43;33.33;;;-4.90;99.90;;;;;;5019425;28;20056;-75
2022/12/14 10:09:31;;;;;;;42.17;31.93;;;-4.70;99.90;;;;;;5026345;28;20170;-75
2022/12/14 10:12:05;;;;;;;42.27;31.37;;;-4.60;99.90;;;;;;5038609;28;20040;-75
2022/12/14 10:14:34;;;;;;;40.50;30.43;;;-4.40;99.90;;;;;;5031003;28;20557;-76
2022/12/14 10:17:20;;;;;;;40.00;30.67;;;-4.30;99.90;;;;;;5038395;28;20056;-75
2022/12/14 10:19:57;;;;;;;40.50;30.53;;;-4.20;99.90;;;;;;5021678;28;20037;-75
2022/12/14 10:22:41;;;;;;;37.90;28.50;;;-4.10;99.90;;;;;;5027339;28;20055;-75
2022/12/14 10:25:23;;;;;;;37.83;29.63;;;-4.00;99.90;;;;;;5026170;28;20060;-75
2022/12/14 10:28:16;;;;;;;38.47;28.40;;;-4.10;99.90;;;;;;5027689;28;20052;-78
2022/12/14 10:30:43;;;;;;;38.90;29.33;;;-4.00;99.90;;;;;;5039833;28;20041;-78
2022/12/14 10:33:26;;;;;;;39.03;30.00;;;-4.00;99.90;;;;;;5031017;28;20052;-79
2022/12/14 10:36:14;;;;;;;43.87;31.17;;;-4.00;99.90;;;;;;5029550;28;20044;-75
2022/12/14 10:38:47;;;;;;;38.70;30.30;;;-4.00;99.90;;;;;;5040393;28;20562;-75
2022/12/14 10:41:22;;;;;;;39.27;31.00;;;-3.90;99.90;;;;;;5044313;28;20044;-75
2022/12/14 10:44:29;;;;;;;42.80;31.53;;;-3.80;99.90;;;;;;5045214;28;20076;-75
2022/12/14 10:47:01;;;;;;;36.23;27.90;;;-3.80;99.90;;;;;;5025213;28;20048;-75
2022/12/14 10:49:56;;;;;;;35.60;28.90;;;-3.80;99.90;;;;;;5021270;28;20072;-76
2022/12/14 10:52:26;;;;;;;38.53;29.73;;;-3.80;99.90;;;;;;5012608;28;20072;-76
2022/12/14 10:54:59;;;;;;;38.65;28.75;;;-3.70;99.90;;;;;;5028530;28;20044;-75
2022/12/14 10:57:26;;;;;;;39.00;28.73;;;-3.70;99.90;;;;;;5043860;28;20710;-76
2022/12/14 10:59:56;;;;;;;36.50;29.20;;;-3.70;99.90;;;;;;5026210;28;20127;-77
2022/12/14 11:02:27;;;;;;;40.10;30.25;;;-3.60;99.90;;;;;;5022975;28;20391;-76
2022/12/14 11:05:00;;;;;;;40.17;30.83;;;-3.60;99.90;;;;;;5041802;28;20040;-79
2022/12/14 11:07:32;;;;;;;37.53;31.07;;;-3.60;99.90;;;;;;5040223;28;20072;-79
2022/12/14 11:10:28;;;;;;;42.10;31.07;;;-3.50;99.90;;;;;;5028005;28;20074;-80
2022/12/14 11:13:03;;;;;;;38.70;30.57;;;-3.50;99.90;;;;;;5025340;28;20407;-79
2022/12/14 11:15:33;;;;;;;36.60;28.17;;;-3.50;99.90;;;;;;5038410;28;20499;-80
2022/12/14 11:18:27;;;;;;;33.87;27.80;;;-3.40;99.90;;;;;;5021924;28;20494;-80
2022/12/14 11:20:59;;;;;;;36.97;29.93;;;-3.30;99.90;;;;;;5036569;28;20494;-80
2022/12/14 11:23:36;;;;;;;36.53;28.63;;;-3.40;99.90;;;;;;5027435;28;20106;-76
2022/12/14 11:26:22;;;;;;;38.17;30.23;;;-3.30;99.90;;;;;;5024250;28;20555;-76
2022/12/14 11:28:54;;;;;;;38.10;28.03;;;-3.20;99.90;;;;;;5042086;28;20056;-76
2022/12/14 11:31:30;;;;;;;36.13;28.10;;;-3.20;99.90;;;;;;5038745;28;20079;-76
2022/12/14 11:33:58;;;;;;;31.10;25.53;;;-3.20;99.90;;;;;;5036945;28;20048;-76
2022/12/14 11:36:36;;;;;;;34.97;26.70;;;-3.10;99.90;;;;;;5026098;28;20438;-76
2022/12/14 11:39:14;;;;;;;34.47;27.07;;;-3.10;99.90;;;;;;5036112;28;20525;-75
2022/12/14 11:41:56;;;;;;;36.70;29.40;;;-3.00;99.90;;;;;;5023743;28;20044;-76
2022/12/14 11:44:26;;;;;;;34.93;27.07;;;-3.00;99.90;;;;;;5033729;28;20565;-76
2022/12/14 11:46:58;;;;;;;39.75;28.38;;;-2.90;99.90;;;;;;5017239;28;20082;-76
2022/12/14 11:49:39;;;;;;;35.07;27.73;;;-2.90;99.90;;;;;;5041789;28;20533;-76
2022/12/14 11:52:04;;;;;;;39.27;26.57;;;-2.80;99.90;;;;;;5034981;28;20578;-76
2022/12/14 11:54:38;;;;;;;35.33;26.23;;;-2.80;99.90;;;;;;5016283;28;20048;-76
2022/12/14 11:57:12;;;;;;;30.30;24.20;;;-2.70;99.90;;;;;;5013703;28;20130;-76
2022/12/14 11:59:44;;;;;;;31.00;25.07;;;-2.70;99.90;;;;;;5029886;28;20111;-76
2022/12/14 12:02:31;;;;;;;28.87;24.00;;;-2.70;99.90;;;;;;5034974;28;20044;-76
2022/12/14 12:05:06;;;;;;;29.27;22.90;;;-2.70;99.90;;;;;;5025859;28;20538;-76
2022/12/14 12:07:38;;;;;;;28.60;22.43;;;-2.70;99.90;;;;;;5027954;28;20048;-76
2022/12/14 12:10:15;;;;;;;29.23;22.73;;;-2.60;99.90;;;;;;5033494;28;20156;-76
2022/12/14 12:12:52;;;;;;;30.33;23.43;;;-2.60;99.90;;;;;;5023059;28;20179;-76
2022/12/14 12:15:38;;;;;;;27.87;21.77;;;-2.60;99.90;;;;;;5034973;28;20517;-76
2022/12/14 12:18:32;;;;;;;27.93;22.03;;;-2.60;99.90;;;;;;5040458;28;20049;-76
2022/12/14 12:21:02;;;;;;;25.50;20.67;;;-2.60;99.90;;;;;;5013839;28;20060;-76
2022/12/14 12:23:55;;;;;;;26.63;20.63;;;-2.50;99.90;;;;;;5042865;28;20056;-76
2022/12/14 12:26:44;;;;;;;26.17;20.97;;;-2.50;99.90;;;;;;5015647;28;20555;-76
2022/12/14 12:29:52;;;;;;;28.27;21.65;;;-2.50;99.90;;;;;;5022843;28;20049;-76
2022/12/14 12:32:26;;;;;;;28.47;20.87;;;-2.50;99.90;;;;;;5011257;28;20056;-77
2022/12/14 12:35:29;;;;;;;23.83;19.00;;;-2.40;99.90;;;;;;5016013;28;20584;-76
2022/12/14 12:38:23;;;;;;;21.03;17.00;;;-2.40;99.90;;;;;;5042323;28;20045;-77
2022/12/14 12:41:20;;;;;;;22.30;19.40;;;-2.40;99.90;;;;;;5023365;28;20044;-76
2022/12/14 12:44:24;;;;;;;21.23;17.30;;;-2.30;99.90;;;;;;5042920;28;20491;-76
2022/12/14 12:47:12;;;;;;;23.17;18.27;;;-2.30;99.90;;;;;;5021462;28;20400;-76
2022/12/14 12:49:38;;;;;;;23.80;18.70;;;-2.20;99.90;;;;;;5014455;28;20125;-78
2022/12/14 12:52:14;;;;;;;23.53;19.23;;;-2.20;99.90;;;;;;5029110;28;20045;-78
2022/12/14 12:54:51;;;;;;;24.43;19.13;;;-2.10;99.90;;;;;;5027603;28;20135;-78
2022/12/14 12:57:21;;;;;;;24.87;19.33;;;-2.10;99.90;;;;;;5018678;28;20082;-76
2022/12/14 12:59:54;;;;;;;23.85;19.23;;;-2.10;99.90;;;;;;5004209;28;20093;-76
2022/12/14 13:02:41;;;;;;;27.57;20.80;;;-2.00;99.90;;;;;;5030449;28;20116;-76
2022/12/14 13:05:14;;;;;;;24.23;20.03;;;-2.00;99.90;;;;;;5035345;28;20044;-76
2022/12/14 13:07:51;;;;;;;25.30;20.27;;;-2.00;99.90;;;;;;5042288;28;20473;-76
2022/12/14 13:10:25;;;;;;;24.07;19.43;;;-1.90;99.90;;;;;;5033952;28;20399;-76